Eglin Air Force Base
KVPS : now visible

Airfield :











YOU CAN JOIN US ON...

 
LOGIN :

Register | Disclaimer

   EN    FR    IT 

 









Legend :    VFR   Marginal VFR   IFR   Intensive IFR   Very Intensive IFR
Visi :
Ceiling :
>= 8 km
>= 3000ft
5 to 8 km
1000 to 3000 ft
1500m to 5 km
500 to 1000 ft
800 to 1500m
200 to 500 ft
< 800m
< 200 ft
Symbols :   Thunderstorms  Fog  Heavy snow  Heavy precipitations  Wind > 20 kt







- Airport Elevation : 87 ft
- IATA code : VPS


KVPS - Eglin Air Force Base

CURRENT METAR :
  • 190934Z AUTO 00000KT 10SM FEW033 SCT160 SCT180 26/24 A3000 RMK AO2 LTG DSNT SE DZE00RAB00E33DZB33E34 SLP165 $

EXPIRED METARs :
  • 190911Z AUTO 30007KT 8SM RA FEW022 OVC035 25/24 A2999 RMK AO2 VIS 2 RWY19 DZE00RAB00 SLP161 $
  • 190901Z AUTO 30011KT 1 5/8SM R12/5000FT -RA FEW020 OVC029 26/24 A2999 RMK AO2 VIS 1 5/8V8 DZE00RAB00 OVC V BKN SLP161 $
  • 190856Z AUTO 29011KT 4SM -DZ FEW020 BKN029 OVC060 26/24 A2999 RMK AO2 DZB53 CIG 020V030 CIG 019 RWY01 CIG 019 RWY30 SLP161 P0000 60000 T02640240 $
  • 190841Z AUTO 30005KT 10SM BKN020 BKN030 BKN060 26/24 A2999 RMK AO2 CIG 020V030 SLP161 $
  • 190831Z AUTO 01003KT 10SM SCT021 BKN026 BKN034 BKN060 BKN190 26/24 A2999 RMK AO2 CIG 022V028 SLP161 $
  • 190821Z AUTO 00000KT 10SM SCT020 BKN028 BKN037 BKN180 26/24 A2999 RMK AO2 CIG 027V037 BKN028 V SCT CIG 018 RWY01 CIG 026 RWY19 CIG 018 RWY30 SLP161 $
  • 190811Z AUTO 00000KT 10SM SCT019 BKN027 26/24 A2999 RMK AO2 CIG 027V190 CIG 018 RWY01 CIG 018 RWY30 SLP161 $
  • 190756Z AUTO 00000KT 10SM FEW020 SCT180 26/24 A2999 RMK AO2 SLP162 T02620242 $
  • 190656Z AUTO 00000KT 10SM BKN190 BKN220 26/24 A2999 RMK AO2 SLP161 T02630239 $
  • 190556Z 30003KT 10SM FEW022 OVC210 26/24 A2999 RMK SLP161 T02640236 10292 20263 403330241 58008 $

TAF AMD TAF KVPS
Valid from the 19 at 09:00 until the 20 at 15:00 UTC


190930Z 1909/2015 24009KT 9999 -SHRA SCT025 BKN120 BKN200 QNH2994INS
TEMPO 1909/1912 24012G18KT 6000 -TSRA BKN018 BKN025CB BKN080
BECMG 1911/1912 34009KT 9999 NSW FEW018 SCT030 BKN200 QNH2999INS
BECMG 1914/1915 23012G18KT 6000 -SHRA VCTS BKN020CB BKN060 BKN200 QNH2997INS
TEMPO 1915/1919 VRB18G28KT 4800 -TSRA BKN026CB BKN040
BECMG 1920/1921 28012G18KT 9999 NSW FEW130 QNH3003INS
BECMG 2005/2006 VRB06KT 9000 BR FEW018 QNH3005INS TX33/1919Z TN24/1911Z
No reported NOTAMs for that airfield.



MET'MAP, your aeronautical weather chart ! - Copyright ORBIFLY December 2007 - Disclaimer

ORBIFLY MET'MAP TEAM :

Programming & Development : Alexandra Zaïnal
Concept & Development : Baudouin d'Aumeries
Co-Development & Prog : Marc-Olivier Méhu
Technical & hardware support : Manuel Goepfert

Contact : metmap@orbifly.com




SOURCES & CREDITS :

   NOAA       Earth
Advisory